createdAt,value
2022-11-12T00:01:30.313Z,102428.66
2022-11-12T00:04:15.094Z,102432.03
2022-11-12T00:06:59.686Z,102441.78
2022-11-12T00:09:44.914Z,102441.50
2022-11-12T00:12:29.710Z,102445.03
2022-11-12T00:15:15.351Z,102442.63
2022-11-12T00:18:00.195Z,102440.50
2022-11-12T00:20:45.277Z,102435.97
2022-11-12T00:23:29.983Z,102435.75
2022-11-12T00:26:15.183Z,102446.25
2022-11-12T00:29:00.087Z,102438.84
2022-11-12T00:31:44.788Z,102450.88
2022-11-12T00:34:29.549Z,102449.25
2022-11-12T00:37:16.085Z,102450.19
2022-11-12T00:40:01.018Z,102446.22
2022-11-12T00:42:45.876Z,102445.63
2022-11-12T00:45:30.463Z,102448.78
2022-11-12T00:48:15.311Z,102449.75
2022-11-12T00:51:02.894Z,102453.94
2022-11-12T00:53:48.597Z,102456.81
2022-11-12T00:56:35.605Z,102457.41
2022-11-12T00:59:20.939Z,102456.38
2022-11-12T01:02:05.849Z,102444.16
2022-11-12T01:04:50.828Z,102450.00
2022-11-12T01:07:35.563Z,102452.81
2022-11-12T01:10:20.606Z,102451.16
2022-11-12T01:13:05.116Z,102439.16
2022-11-12T01:15:49.956Z,102449.44
2022-11-12T01:18:34.714Z,102455.78
2022-11-12T01:21:21.082Z,102461.38
2022-11-12T01:24:06.727Z,102453.19
2022-11-12T01:26:51.818Z,102458.94
2022-11-12T01:29:36.356Z,102447.47
2022-11-12T01:32:21.096Z,102447.91
2022-11-12T01:35:06.632Z,102448.84
2022-11-12T01:37:51.468Z,102445.56
2022-11-12T01:40:36.257Z,102449.81
2022-11-12T01:43:20.980Z,102456.16
2022-11-12T01:46:14.328Z,102456.59
2022-11-12T01:49:03.920Z,102457.47
2022-11-12T01:51:50.919Z,102446.72
2022-11-12T01:54:36.957Z,102468.28
2022-11-12T01:57:31.983Z,102455.38
2022-11-12T02:00:19.552Z,102455.72
2022-11-12T02:03:10.882Z,102459.81
2022-11-12T02:06:04.937Z,102464.78
2022-11-12T02:08:50.958Z,102460.50
2022-11-12T02:11:35.854Z,102459.69
2022-11-12T02:14:20.982Z,102467.16
2022-11-12T02:17:06.104Z,102454.84
2022-11-12T02:19:51.994Z,102467.09
2022-11-12T02:22:36.977Z,102466.31
2022-11-12T02:25:24.105Z,102454.84
2022-11-12T02:28:09.026Z,102469.56
2022-11-12T02:30:54.161Z,102472.28
2022-11-12T02:33:39.151Z,102469.03
2022-11-12T02:36:24.064Z,102476.75
2022-11-12T02:39:09.095Z,102477.34
2022-11-12T02:41:53.751Z,102469.34
2022-11-12T02:44:38.724Z,102474.66
2022-11-12T02:47:23.546Z,102472.88
2022-11-12T02:50:09.028Z,102468.91
2022-11-12T02:52:53.585Z,102469.94
2022-11-12T02:55:39.090Z,102483.78
2022-11-12T02:58:24.608Z,102486.84
2022-11-12T03:01:10.040Z,102480.84
2022-11-12T03:03:54.648Z,102484.81
2022-11-12T03:06:39.977Z,102485.94
2022-11-12T03:09:24.923Z,102490.44
2022-11-12T03:12:10.271Z,102494.97
2022-11-12T03:14:54.982Z,102496.72
2022-11-12T03:17:39.836Z,102495.53
2022-11-12T03:20:25.262Z,102495.84
2022-11-12T03:23:10.820Z,102501.44
2022-11-12T03:25:55.694Z,102501.81
2022-11-12T03:28:40.626Z,102509.97
2022-11-12T03:31:25.380Z,102513.34
2022-11-12T03:34:11.139Z,102518.34
2022-11-12T03:36:55.909Z,102509.53
2022-11-12T03:39:40.668Z,102504.16
2022-11-12T03:42:25.779Z,102508.78
2022-11-12T03:45:10.822Z,102500.06
2022-11-12T03:47:57.244Z,102496.19
2022-11-12T03:50:42.316Z,102500.56
2022-11-12T03:53:27.189Z,102508.38
2022-11-12T03:56:12.325Z,102503.88
2022-11-12T03:58:57.032Z,102501.31
2022-11-12T04:01:42.240Z,102503.56
2022-11-12T04:04:46.742Z,102505.22
2022-11-12T04:07:50.505Z,102502.03
2022-11-12T04:10:35.209Z,102510.13
2022-11-12T04:13:29.035Z,102504.13
2022-11-12T04:16:35.147Z,102512.91
2022-11-12T04:19:38.274Z,102505.53
2022-11-12T04:22:22.767Z,102503.56
2022-11-12T04:25:26.707Z,102517.88
2022-11-12T04:28:11.024Z,102515.03
2022-11-12T04:30:55.737Z,102515.84
2022-11-12T04:33:40.423Z,102517.03
2022-11-12T04:36:25.256Z,102516.63
2022-11-12T04:39:09.786Z,102523.38
2022-11-12T04:42:13.707Z,102512.38
2022-11-12T04:45:03.207Z,102521.59
2022-11-12T04:47:48.153Z,102512.38
2022-11-12T04:50:33.392Z,102514.41
2022-11-12T04:53:18.813Z,102515.50
2022-11-12T04:56:03.915Z,102518.78
2022-11-12T04:58:48.989Z,102525.47
2022-11-12T05:01:33.968Z,102526.19
2022-11-12T05:04:19.289Z,102520.66
2022-11-12T05:07:04.295Z,102513.84
2022-11-12T05:09:49.576Z,102525.28
2022-11-12T05:12:34.649Z,102521.72
2022-11-12T05:15:19.831Z,102518.06
2022-11-12T05:18:04.679Z,102518.81
2022-11-12T05:20:52.493Z,102527.69
2022-11-12T05:23:37.411Z,102521.22
2022-11-12T05:26:22.463Z,102521.13
2022-11-12T05:29:08.875Z,102526.28
2022-11-12T05:31:54.675Z,102526.88
2022-11-12T05:34:39.859Z,102535.75
2022-11-12T05:37:24.979Z,102530.38
2022-11-12T05:40:10.275Z,102530.94
2022-11-12T05:42:55.171Z,102525.50
2022-11-12T05:45:42.891Z,102531.53
2022-11-12T05:48:28.281Z,102532.66
2022-11-12T05:51:14.428Z,102531.81
2022-11-12T05:54:00.541Z,102538.78
2022-11-12T05:56:46.320Z,102539.56
2022-11-12T05:59:31.397Z,102533.78
2022-11-12T06:02:16.012Z,102534.91
2022-11-12T06:05:01.033Z,102534.56
2022-11-12T06:07:46.146Z,102525.16
2022-11-12T06:10:31.971Z,102537.94
2022-11-12T06:13:16.613Z,102536.75
2022-11-12T06:16:01.793Z,102542.34
2022-11-12T06:18:46.551Z,102536.09
2022-11-12T06:21:31.684Z,102538.78
2022-11-12T06:24:16.501Z,102533.72
2022-11-12T06:27:01.979Z,102528.94
2022-11-12T06:29:46.622Z,102533.59
2022-11-12T06:32:31.587Z,102546.78
2022-11-12T06:35:17.588Z,102545.28
2022-11-12T06:38:02.515Z,102550.72
2022-11-12T06:40:47.231Z,102539.41
2022-11-12T06:43:33.266Z,102549.84
2022-11-12T06:46:17.763Z,102544.41
2022-11-12T06:49:02.922Z,102545.91
2022-11-12T06:51:50.515Z,102562.44
2022-11-12T06:54:35.307Z,102557.84
2022-11-12T06:57:20.184Z,102560.91
2022-11-12T07:00:05.882Z,102568.91
2022-11-12T07:02:51.041Z,102560.28
2022-11-12T07:05:37.537Z,102564.75
2022-11-12T07:08:22.573Z,102556.63
2022-11-12T07:11:08.234Z,102567.53
2022-11-12T07:13:53.437Z,102569.16
2022-11-12T07:16:38.489Z,102572.22
2022-11-12T07:19:24.068Z,102571.75
2022-11-12T07:22:09.329Z,102568.28
2022-11-12T07:24:54.097Z,102571.22
2022-11-12T07:27:39.183Z,102564.41
2022-11-12T07:30:24.049Z,102569.09
2022-11-12T07:33:09.542Z,102562.09
2022-11-12T07:36:17.547Z,102561.44
2022-11-12T07:39:03.036Z,102568.31
2022-11-12T07:41:47.895Z,102569.56
2022-11-12T07:44:32.983Z,102580.59
2022-11-12T07:47:17.885Z,102583.91
2022-11-12T07:50:03.190Z,102579.56
2022-11-12T07:52:48.251Z,102576.09
2022-11-12T07:55:33.478Z,102571.75
2022-11-12T07:58:18.339Z,102573.56
2022-11-12T08:01:11.475Z,102569.09
2022-11-12T08:03:57.894Z,102573.25
2022-11-12T08:06:43.284Z,102566.66
2022-11-12T08:09:28.428Z,102577.06
2022-11-12T08:12:13.773Z,102581.41
2022-11-12T08:14:58.522Z,102563.13
2022-11-12T08:17:43.575Z,102578.13
2022-11-12T08:20:28.012Z,102580.63
2022-11-12T08:23:13.067Z,102584.47
2022-11-12T08:26:02.814Z,102586.47
2022-11-12T08:28:48.126Z,102586.78
2022-11-12T08:31:32.620Z,102580.28
2022-11-12T08:34:22.512Z,102588.44
2022-11-12T08:37:08.080Z,102585.84
2022-11-12T08:39:53.423Z,102594.84
2022-11-12T08:42:38.211Z,102594.44
2022-11-12T08:45:23.399Z,102589.88
2022-11-12T08:48:11.949Z,102591.31
2022-11-12T08:50:57.861Z,102597.84
2022-11-12T08:53:42.911Z,102596.88
2022-11-12T08:56:28.083Z,102594.59
2022-11-12T08:59:13.042Z,102604.69
2022-11-12T09:01:58.418Z,102607.06
2022-11-12T09:04:43.662Z,102600.69
2022-11-12T09:07:48.876Z,102610.56
2022-11-12T09:10:35.400Z,102618.25
2022-11-12T09:13:20.348Z,102613.78
2022-11-12T09:16:06.977Z,102611.88
2022-11-12T09:18:52.049Z,102614.44
2022-11-12T09:21:36.550Z,102616.91
2022-11-12T09:24:24.195Z,102617.94
2022-11-12T09:27:09.007Z,102624.78
2022-11-12T09:29:54.462Z,102628.25
2022-11-12T09:32:39.179Z,102624.47
2022-11-12T09:35:24.505Z,102624.25
2022-11-12T09:38:09.297Z,102635.53
2022-11-12T09:41:05.139Z,102629.91
2022-11-12T09:43:53.509Z,102628.38
2022-11-12T09:46:41.819Z,102627.19
2022-11-12T09:49:40.225Z,102621.00
2022-11-12T09:52:29.340Z,102626.50
2022-11-12T09:55:24.977Z,102626.06
2022-11-12T09:58:18.720Z,102636.38
2022-11-12T10:01:16.698Z,102633.25
2022-11-12T10:04:36.652Z,102621.72
2022-11-12T10:07:50.697Z,102629.22
2022-11-12T10:10:48.698Z,102631.72
2022-11-12T10:14:12.078Z,102638.22
2022-11-12T10:17:03.879Z,102616.16
2022-11-12T10:20:07.094Z,102636.88
2022-11-12T10:22:58.462Z,102639.25
2022-11-12T10:25:45.644Z,102629.03
2022-11-12T10:28:39.632Z,102635.75
2022-11-12T10:31:24.171Z,102640.19
2022-11-12T10:34:23.624Z,102626.91
2022-11-12T10:37:21.775Z,102631.00
2022-11-12T10:40:28.311Z,102629.91
2022-11-12T10:43:15.705Z,102624.81
2022-11-12T10:46:18.314Z,102623.72
2022-11-12T10:49:10.825Z,102626.44
2022-11-12T10:51:58.081Z,102625.97
2022-11-12T10:54:42.947Z,102620.28
2022-11-12T10:57:27.851Z,102624.03
2022-11-12T11:00:12.788Z,102630.44
2022-11-12T11:02:59.453Z,102619.56
2022-11-12T11:05:55.539Z,102620.56
2022-11-12T11:08:44.381Z,102617.50
2022-11-12T11:11:30.932Z,102625.00
2022-11-12T11:14:21.477Z,102614.59
2022-11-12T11:17:15.867Z,102632.19
2022-11-12T11:20:02.291Z,102625.53
2022-11-12T11:22:55.701Z,102618.34
2022-11-12T11:25:42.438Z,102633.22
2022-11-12T11:28:40.545Z,102632.59
2022-11-12T11:31:41.415Z,102625.31
2022-11-12T11:34:52.806Z,102632.63
2022-11-12T11:38:10.316Z,102631.28
2022-11-12T11:41:00.109Z,102631.88
2022-11-12T11:44:00.191Z,102624.13
2022-11-12T11:47:18.163Z,102628.31
2022-11-12T11:50:14.882Z,102626.31
2022-11-12T11:53:09.688Z,102614.09
2022-11-12T11:56:03.126Z,102623.88
2022-11-12T11:59:36.337Z,102606.22
2022-11-12T12:02:42.436Z,102614.03
2022-11-12T12:06:11.639Z,102608.81
2022-11-12T12:09:08.723Z,102612.28
2022-11-12T12:12:21.877Z,102615.75
2022-11-12T12:15:25.778Z,102612.69
2022-11-12T12:18:30.458Z,102609.34
2022-11-12T12:21:21.269Z,102614.25
2022-11-12T12:24:09.547Z,102598.56
2022-11-12T12:27:16.527Z,102604.41
2022-11-12T12:30:03.891Z,102604.41
2022-11-12T12:33:18.269Z,102605.38
2022-11-12T12:36:09.240Z,102612.94
2022-11-12T12:39:18.387Z,102618.25
2022-11-12T12:42:16.445Z,102607.97
2022-11-12T12:45:21.988Z,102608.06
2022-11-12T12:48:20.770Z,102604.38
2022-11-12T12:51:06.200Z,102604.88
2022-11-12T12:53:50.854Z,102602.28
2022-11-12T12:56:36.251Z,102606.97
2022-11-12T12:59:23.146Z,102606.47
2022-11-12T13:02:20.773Z,102607.09
2022-11-12T13:05:05.975Z,102606.09
2022-11-12T13:07:51.918Z,102606.13
2022-11-12T13:10:43.820Z,102605.03
2022-11-12T13:13:35.624Z,102587.06
2022-11-12T13:16:55.362Z,102596.25
2022-11-12T13:19:52.815Z,102598.34
2022-11-12T13:22:37.796Z,102591.50
2022-11-12T13:25:30.971Z,102589.28
2022-11-12T13:28:17.881Z,102603.63
2022-11-12T13:31:04.263Z,102599.06
2022-11-12T13:33:49.556Z,102583.84
2022-11-12T13:36:35.336Z,102589.28
2022-11-12T13:39:21.849Z,102592.22
2022-11-12T13:42:36.437Z,102596.41
2022-11-12T13:45:24.633Z,102578.75
2022-11-12T13:48:25.987Z,102579.50
2022-11-12T13:51:44.576Z,102581.47
2022-11-12T13:54:36.402Z,102589.41
2022-11-12T13:57:24.187Z,102574.94
2022-11-12T14:00:21.775Z,102582.22
2022-11-12T14:03:07.552Z,102575.16
2022-11-12T14:05:54.159Z,102573.31
2022-11-12T14:08:55.045Z,102576.16
2022-11-12T14:12:03.771Z,102579.00
2022-11-12T14:15:18.260Z,102584.78
2022-11-12T14:18:14.923Z,102575.16
2022-11-12T14:21:05.833Z,102565.28
2022-11-12T14:23:52.066Z,102574.91
2022-11-12T14:26:42.304Z,102571.69
2022-11-12T14:29:32.988Z,102577.88
2022-11-12T14:32:19.658Z,102580.59
2022-11-12T14:35:19.171Z,102579.84
2022-11-12T14:38:31.395Z,102571.56
2022-11-12T14:41:24.253Z,102576.63
2022-11-12T14:44:17.467Z,102579.81
2022-11-12T14:47:03.772Z,102581.16
2022-11-12T14:49:49.663Z,102588.97
2022-11-12T14:52:40.062Z,102575.59
2022-11-12T14:55:31.823Z,102578.22
2022-11-12T14:58:18.815Z,102569.53
2022-11-12T15:04:37.173Z,102587.00
2022-11-12T15:07:33.986Z,102589.84
2022-11-12T15:10:40.795Z,102583.53
2022-11-12T15:13:26.864Z,102585.09
2022-11-12T15:16:23.782Z,102592.59
2022-11-12T15:19:20.955Z,102586.66
2022-11-12T15:22:20.331Z,102589.38
2022-11-12T15:25:21.475Z,102578.25
2022-11-12T15:28:21.328Z,102585.44
2022-11-12T15:31:07.639Z,102581.34
2022-11-12T15:33:52.993Z,102589.38
2022-11-12T15:36:40.647Z,102572.81
2022-11-12T15:39:27.768Z,102571.84
2022-11-12T15:42:17.039Z,102580.38
2022-11-12T15:45:09.698Z,102588.66
2022-11-12T15:47:55.875Z,102579.50
2022-11-12T15:50:41.132Z,102577.53
2022-11-12T15:53:26.441Z,102576.44
2022-11-12T15:56:16.896Z,102582.72
2022-11-12T15:59:03.072Z,102578.03
2022-11-12T16:01:48.726Z,102574.06
2022-11-12T16:04:34.216Z,102578.50
2022-11-12T16:07:19.488Z,102580.25
2022-11-12T16:10:12.502Z,102577.28
2022-11-12T16:13:00.214Z,102582.50
2022-11-12T16:15:45.296Z,102585.34
2022-11-12T16:18:30.822Z,102581.63
2022-11-12T16:21:20.623Z,102583.13
2022-11-12T16:24:07.154Z,102584.88
2022-11-12T16:26:52.070Z,102591.06
2022-11-12T16:29:37.288Z,102587.22
2022-11-12T16:32:22.654Z,102586.47
2022-11-12T16:35:08.679Z,102593.13
2022-11-12T16:37:54.575Z,102595.56
2022-11-12T16:40:40.662Z,102584.94
2022-11-12T16:43:26.047Z,102593.38
2022-11-12T16:46:18.714Z,102583.59
2022-11-12T16:49:03.550Z,102586.19
2022-11-12T16:51:48.536Z,102597.47
2022-11-12T16:54:33.220Z,102594.88
2022-11-12T16:57:18.481Z,102597.47
2022-11-12T17:00:05.040Z,102595.38
2022-11-12T17:02:53.437Z,102595.50
2022-11-12T17:05:38.648Z,102587.94
2022-11-12T17:08:31.076Z,102595.97
2022-11-12T17:11:18.466Z,102586.19
2022-11-12T17:14:05.133Z,102592.38
2022-11-12T17:16:50.112Z,102587.94
2022-11-12T17:19:35.624Z,102587.19
2022-11-12T17:22:20.665Z,102584.22
2022-11-12T17:25:07.582Z,102588.38
2022-11-12T17:27:52.194Z,102591.84
2022-11-12T17:30:37.494Z,102591.09
2022-11-12T17:33:22.522Z,102587.63
2022-11-12T17:36:13.824Z,102583.94
2022-11-12T17:38:59.719Z,102588.50
2022-11-12T17:41:44.906Z,102587.41
2022-11-12T17:44:29.403Z,102578.50
2022-11-12T17:47:14.972Z,102584.63
2022-11-12T17:50:00.047Z,102583.53
2022-11-12T17:52:45.189Z,102584.16
2022-11-12T17:55:30.081Z,102567.84
2022-11-12T17:58:15.194Z,102574.78
2022-11-12T18:01:23.493Z,102579.25
2022-11-12T18:04:09.971Z,102580.50
2022-11-12T18:06:54.916Z,102580.50
2022-11-12T18:09:39.752Z,102576.31
2022-11-12T18:12:25.190Z,102576.06
2022-11-12T18:15:12.553Z,102573.56
2022-11-12T18:17:57.669Z,102568.03
2022-11-12T18:20:42.753Z,102564.56
2022-11-12T18:23:28.231Z,102572.72
2022-11-12T18:26:17.518Z,102571.50
2022-11-12T18:29:02.513Z,102571.84
2022-11-12T18:31:48.469Z,102570.81
2022-11-12T18:34:33.971Z,102569.53
2022-11-12T18:37:19.974Z,102578.84
2022-11-12T18:40:04.972Z,102570.06
2022-11-12T18:42:50.090Z,102575.03
2022-11-12T18:45:35.330Z,102575.03
2022-11-12T18:48:20.788Z,102581.34
2022-11-12T18:51:09.147Z,102581.09
2022-11-12T18:53:54.648Z,102592.19
2022-11-12T18:56:41.959Z,102590.34
2022-11-12T18:59:30.123Z,102592.56
2022-11-12T19:02:15.532Z,102597.00
2022-11-12T19:05:04.303Z,102599.50
2022-11-12T19:07:51.790Z,102601.00
2022-11-12T19:10:37.297Z,102597.19
2022-11-12T19:13:22.220Z,102597.19
2022-11-12T19:16:16.642Z,102597.06
2022-11-12T19:19:02.308Z,102603.47
2022-11-12T19:21:48.242Z,102602.38
2022-11-12T19:24:33.357Z,102609.28
2022-11-12T19:27:19.449Z,102602.97
2022-11-12T19:30:06.344Z,102603.25
2022-11-12T19:32:51.427Z,102602.50
2022-11-12T19:35:39.056Z,102598.00
2022-11-12T19:38:25.194Z,102606.53
2022-11-12T19:41:19.306Z,102612.09
2022-11-12T19:44:05.542Z,102616.19
2022-11-12T19:46:50.754Z,102613.59
2022-11-12T19:49:35.929Z,102605.69
2022-11-12T19:52:21.730Z,102609.03
2022-11-12T19:55:07.112Z,102606.31
2022-11-12T19:57:52.067Z,102603.72
2022-11-12T20:00:37.943Z,102600.25
2022-11-12T20:03:25.166Z,102607.94
2022-11-12T20:06:13.192Z,102615.22
2022-11-12T20:09:03.476Z,102605.78
2022-11-12T20:11:50.203Z,102606.13
2022-11-12T20:14:36.514Z,102604.88
2022-11-12T20:17:21.799Z,102598.91
2022-11-12T20:20:08.962Z,102594.88
2022-11-12T20:22:54.257Z,102608.78
2022-11-12T20:25:39.170Z,102597.91
2022-11-12T20:28:24.843Z,102605.50
2022-11-12T20:31:16.395Z,102614.41
2022-11-12T20:34:02.156Z,102616.59
2022-11-12T20:36:47.559Z,102607.47
2022-11-12T20:39:33.215Z,102610.06
2022-11-12T20:42:21.119Z,102614.22
2022-11-12T20:45:06.856Z,102605.28
2022-11-12T20:47:54.647Z,102598.97
2022-11-12T20:50:41.757Z,102591.91
2022-11-12T20:53:36.836Z,102607.47
2022-11-12T20:56:24.446Z,102599.53
2022-11-12T20:59:10.364Z,102595.72
2022-11-12T21:01:57.127Z,102600.94
2022-11-12T21:04:42.656Z,102603.78
2022-11-12T21:07:28.370Z,102597.13
2022-11-12T21:10:13.560Z,102597.88
2022-11-12T21:12:59.060Z,102603.53
2022-11-12T21:15:47.678Z,102589.09
2022-11-12T21:18:34.342Z,102605.72
2022-11-12T21:21:20.566Z,102596.38
2022-11-12T21:24:06.052Z,102588.72
2022-11-12T21:26:50.923Z,102586.53
2022-11-12T21:29:36.343Z,102593.00
2022-11-12T21:32:21.509Z,102594.63
2022-11-12T21:35:07.419Z,102598.75
2022-11-12T21:37:52.731Z,102592.09
2022-11-12T21:40:38.512Z,102594.69
2022-11-12T21:43:23.226Z,102590.81
2022-11-12T21:46:09.197Z,102588.09
2022-11-12T21:48:55.504Z,102580.47
2022-11-12T21:51:41.185Z,102582.19
2022-11-12T21:54:26.095Z,102593.75
2022-11-12T21:57:16.112Z,102589.09
2022-11-12T22:00:34.686Z,102590.06
2022-11-12T22:03:08.946Z,102595.84
2022-11-12T22:05:54.138Z,102587.56
2022-11-12T22:08:41.467Z,102582.03
2022-11-12T22:11:27.459Z,102591.03
2022-11-12T22:14:12.822Z,102585.72
2022-11-12T22:16:57.592Z,102586.13
2022-11-12T22:19:42.763Z,102581.50
2022-11-12T22:22:27.637Z,102579.19
2022-11-12T22:25:13.186Z,102575.50
2022-11-12T22:27:58.584Z,102582.91
2022-11-12T22:30:44.420Z,102576.34
2022-11-12T22:33:29.203Z,102572.03
2022-11-12T22:36:17.686Z,102574.50
2022-11-12T22:39:05.035Z,102576.13
2022-11-12T22:41:50.506Z,102555.88
2022-11-12T22:44:35.823Z,102558.59
2022-11-12T22:47:21.425Z,102560.06
2022-11-12T22:50:07.218Z,102565.38
2022-11-12T22:52:54.052Z,102564.63
2022-11-12T22:55:39.124Z,102561.16
2022-11-12T22:58:24.667Z,102567.28
2022-11-12T23:01:17.717Z,102556.94
2022-11-12T23:04:05.538Z,102559.53
2022-11-12T23:06:50.443Z,102559.38
2022-11-12T23:09:35.772Z,102553.19
2022-11-12T23:12:20.594Z,102552.06
2022-11-12T23:15:06.120Z,102555.66
2022-11-12T23:17:50.873Z,102549.94
2022-11-12T23:20:35.592Z,102553.19
2022-11-12T23:23:20.449Z,102549.00
2022-11-12T23:26:09.700Z,102547.28
2022-11-12T23:28:56.479Z,102555.31
2022-11-12T23:31:43.236Z,102558.91
2022-11-12T23:34:28.010Z,102555.31
2022-11-12T23:37:13.070Z,102560.53
2022-11-12T23:39:57.730Z,102551.38
2022-11-12T23:42:42.679Z,102555.09
2022-11-12T23:45:27.718Z,102555.72
2022-11-12T23:48:12.955Z,102554.22
2022-11-12T23:51:10.334Z,102562.88
2022-11-12T23:53:55.676Z,102559.19
2022-11-12T23:56:40.719Z,102565.50
2022-11-12T23:59:25.624Z,102562.88
